createdAt,value
2023-03-05T05:00:36.415Z,81.10
2023-03-05T05:01:37.432Z,81.21
2023-03-05T05:02:37.396Z,81.31
2023-03-05T05:03:37.349Z,81.31
2023-03-05T05:04:37.354Z,81.52
2023-03-05T05:05:37.571Z,81.73
2023-03-05T05:06:37.392Z,81.83
2023-03-05T05:07:37.322Z,81.93
2023-03-05T05:08:37.255Z,82.04
2023-03-05T05:09:37.293Z,82.04
2023-03-05T05:10:37.282Z,82.25
2023-03-05T05:11:37.250Z,82.35
2023-03-05T05:12:37.208Z,82.46
2023-03-05T05:13:37.254Z,82.35
2023-03-05T05:14:37.240Z,82.46
2023-03-05T05:15:37.238Z,82.25
2023-03-05T05:16:37.251Z,82.35
2023-03-05T05:17:37.165Z,82.46
2023-03-05T05:18:37.193Z,82.46
2023-03-05T05:19:37.196Z,82.67
2023-03-05T05:20:37.124Z,82.77
2023-03-05T05:21:37.106Z,82.67
2023-03-05T05:22:37.097Z,82.77
2023-03-05T05:23:37.094Z,82.56
2023-03-05T05:24:37.082Z,82.46
2023-03-05T05:25:37.061Z,82.67
2023-03-05T05:26:37.065Z,82.56
2023-03-05T05:27:37.048Z,82.81
2023-03-05T05:28:37.046Z,83.18
2023-03-05T05:29:37.056Z,83.12
2023-03-05T05:30:37.021Z,83.33
2023-03-05T05:31:37.040Z,83.12
2023-03-05T05:32:37.167Z,83.33
2023-03-05T05:33:36.991Z,83.33
2023-03-05T05:34:36.982Z,83.33
2023-03-05T05:35:37.076Z,83.08
2023-03-05T05:36:36.964Z,83.08
2023-03-05T05:37:36.944Z,83.18
2023-03-05T05:38:36.943Z,83.29
2023-03-05T05:39:36.925Z,83.29
2023-03-05T05:40:36.923Z,83.08
2023-03-05T05:41:36.903Z,83.29
2023-03-05T05:42:36.898Z,83.40
2023-03-05T05:43:36.911Z,83.18
2023-03-05T05:44:36.880Z,83.29
2023-03-05T05:45:36.971Z,82.98
2023-03-05T05:46:36.933Z,82.98
2023-03-05T05:47:36.838Z,82.87
2023-03-05T05:48:36.835Z,83.18
2023-03-05T05:49:36.830Z,82.94
2023-03-05T05:50:36.844Z,82.94
2023-03-05T05:51:36.852Z,82.98
2023-03-05T05:52:36.822Z,83.08
2023-03-05T05:53:36.794Z,83.04
2023-03-05T05:54:36.791Z,82.98
2023-03-05T05:55:36.758Z,82.73
2023-03-05T05:56:36.751Z,82.98
2023-03-05T05:57:36.738Z,83.08
2023-03-05T05:58:36.731Z,83.29
2023-03-05T05:59:36.738Z,83.40
2023-03-05T06:00:36.761Z,83.25
2023-03-05T06:01:36.734Z,83.15
2023-03-05T06:02:36.715Z,82.94
2023-03-05T06:03:36.668Z,82.84
2023-03-05T06:04:36.679Z,82.84
2023-03-05T06:05:36.647Z,82.84
2023-03-05T06:06:36.643Z,82.94
2023-03-05T06:07:36.638Z,83.15
2023-03-05T06:08:36.640Z,82.84
2023-03-05T06:09:36.627Z,82.84
2023-03-05T06:10:36.635Z,82.63
2023-03-05T06:11:36.585Z,82.63
2023-03-05T06:12:36.606Z,82.63
2023-03-05T06:13:36.577Z,82.63
2023-03-05T06:14:36.595Z,82.73
2023-03-05T06:15:36.549Z,82.73
2023-03-05T06:16:36.594Z,82.84
2023-03-05T06:17:36.523Z,82.84
2023-03-05T06:18:36.534Z,82.73
2023-03-05T06:19:36.511Z,82.84
2023-03-05T06:20:36.489Z,82.73
2023-03-05T06:21:36.508Z,82.63
2023-03-05T06:22:36.496Z,82.73
2023-03-05T06:23:36.459Z,82.73
2023-03-05T06:24:36.486Z,82.73
2023-03-05T06:25:36.445Z,82.84
2023-03-05T06:26:36.434Z,82.59
2023-03-05T06:27:36.431Z,82.63
2023-03-05T06:28:36.410Z,82.48
2023-03-05T06:29:37.528Z,82.53
2023-03-05T06:30:36.439Z,82.80
2023-03-05T06:31:37.397Z,82.48
2023-03-05T06:32:36.404Z,82.48
2023-03-05T06:33:36.383Z,82.59
2023-03-05T06:34:36.347Z,82.59
2023-03-05T06:35:36.481Z,82.38
2023-03-05T06:36:36.348Z,82.38
2023-03-05T06:37:36.328Z,82.28
2023-03-05T06:38:36.309Z,82.17
2023-03-05T06:39:36.320Z,82.17
2023-03-05T06:40:36.298Z,82.17
2023-03-05T06:41:36.302Z,82.17
2023-03-05T06:42:36.278Z,82.28
2023-03-05T06:43:36.238Z,82.07
2023-03-05T06:44:36.259Z,81.96
2023-03-05T06:45:36.246Z,82.07
2023-03-05T06:46:36.276Z,81.82
2023-03-05T06:47:36.214Z,81.82
2023-03-05T06:48:36.216Z,81.72
2023-03-05T06:49:36.212Z,81.41
2023-03-05T06:50:36.186Z,81.41
2023-03-05T06:51:36.173Z,81.30
2023-03-05T06:52:36.147Z,81.09
2023-03-05T06:53:36.131Z,80.88
2023-03-05T06:54:36.137Z,80.99
2023-03-05T06:55:36.138Z,80.95
2023-03-05T06:56:36.264Z,80.78
2023-03-05T06:57:36.098Z,80.68
2023-03-05T06:58:36.097Z,80.78
2023-03-05T06:59:36.076Z,80.57
2023-03-05T07:00:36.071Z,80.78
2023-03-05T07:01:36.150Z,80.88
2023-03-05T07:02:36.062Z,80.68
2023-03-05T07:03:36.036Z,80.57
2023-03-05T07:04:36.042Z,80.78
2023-03-05T07:05:36.038Z,80.99
2023-03-05T07:06:36.005Z,80.26
2023-03-05T07:07:35.993Z,80.05
2023-03-05T07:08:35.982Z,80.36
2023-03-05T07:09:35.976Z,80.16
2023-03-05T07:10:35.954Z,80.05
2023-03-05T07:11:35.957Z,80.05
2023-03-05T07:12:35.936Z,80.12
2023-03-05T07:13:35.920Z,79.91
2023-03-05T07:14:35.926Z,79.49
2023-03-05T07:15:35.948Z,79.28
2023-03-05T07:16:35.997Z,79.39
2023-03-05T07:17:35.878Z,79.18
2023-03-05T07:18:35.872Z,79.28
2023-03-05T07:19:35.858Z,79.14
2023-03-05T07:20:35.854Z,78.97
2023-03-05T07:21:39.061Z,78.56
2023-03-05T07:22:35.834Z,79.18
2023-03-05T07:23:35.812Z,78.63
2023-03-05T07:24:35.817Z,77.93
2023-03-05T07:25:35.826Z,78.20
2023-03-05T07:26:35.805Z,78.10
2023-03-05T07:27:35.782Z,78.10
2023-03-05T07:28:35.810Z,77.79
2023-03-05T07:29:35.756Z,77.62
2023-03-05T07:30:35.784Z,77.83
2023-03-05T07:31:35.734Z,77.27
2023-03-05T07:32:35.806Z,76.96
2023-03-05T07:33:35.716Z,76.86
2023-03-05T07:34:35.695Z,76.89
2023-03-05T07:35:35.706Z,76.99
2023-03-05T07:36:35.695Z,76.86
2023-03-05T07:37:35.663Z,76.75
2023-03-05T07:38:35.687Z,76.23
2023-03-05T07:39:35.656Z,76.02
2023-03-05T07:40:35.641Z,75.92
2023-03-05T07:41:35.648Z,75.81
2023-03-05T07:42:35.712Z,75.92
2023-03-05T07:43:35.607Z,75.71
2023-03-05T07:44:35.607Z,75.92
2023-03-05T07:45:35.588Z,75.40
2023-03-05T07:46:35.592Z,75.50
2023-03-05T07:47:35.565Z,75.36
2023-03-05T07:48:35.572Z,75.05
2023-03-05T07:49:35.568Z,75.36
2023-03-05T07:50:35.568Z,74.95
2023-03-05T07:51:35.534Z,74.84
2023-03-05T07:52:35.597Z,74.84
2023-03-05T07:53:35.520Z,74.32
2023-03-05T07:54:35.486Z,74.74
2023-03-05T07:55:35.487Z,74.11
2023-03-05T07:56:35.728Z,73.90
2023-03-05T07:57:35.480Z,73.80
2023-03-05T07:58:35.468Z,73.59
2023-03-05T07:59:35.451Z,73.59
2023-03-05T08:00:35.503Z,73.46
2023-03-05T08:01:35.444Z,73.35
2023-03-05T08:02:35.526Z,73.46
2023-03-05T08:03:35.412Z,72.86
2023-03-05T08:04:35.383Z,73.07
2023-03-05T08:05:35.423Z,73.49
2023-03-05T08:06:35.367Z,73.49
2023-03-05T08:07:35.360Z,73.49
2023-03-05T08:08:35.363Z,73.56
2023-03-05T08:09:35.338Z,73.46
2023-03-05T08:10:35.308Z,71.93
2023-03-05T08:11:35.333Z,69.92
2023-03-05T08:12:35.320Z,69.92
2023-03-05T08:13:35.326Z,68.99
2023-03-05T08:14:35.424Z,68.47
2023-03-05T08:15:35.317Z,68.68
2023-03-05T08:16:35.286Z,68.91
2023-03-05T08:17:35.253Z,69.64
2023-03-05T08:18:35.244Z,69.74
2023-03-05T08:19:35.240Z,69.43
2023-03-05T08:20:35.234Z,69.30
2023-03-05T08:21:35.205Z,68.99
2023-03-05T08:22:35.207Z,67.89
2023-03-05T08:23:35.191Z,65.99
2023-03-05T08:24:35.167Z,65.26
2023-03-05T08:25:35.150Z,65.58
2023-03-05T08:26:35.145Z,65.70
2023-03-05T08:27:35.177Z,65.55
2023-03-05T08:28:35.173Z,64.00
2023-03-05T08:29:35.118Z,62.97
2023-03-05T08:30:35.098Z,62.99
2023-03-05T08:31:35.170Z,64.20
2023-03-05T08:32:35.165Z,65.16
2023-03-05T08:33:35.473Z,65.81
2023-03-05T08:34:35.083Z,66.41
2023-03-05T08:35:35.088Z,65.44
2023-03-05T08:36:35.048Z,63.82
2023-03-05T08:37:35.030Z,63.28
2023-03-05T08:38:35.026Z,60.89
2023-03-05T08:39:35.014Z,60.87
2023-03-05T08:40:35.013Z,59.70
2023-03-05T08:41:34.978Z,60.38
2023-03-05T08:42:34.963Z,61.44
2023-03-05T08:43:34.986Z,62.09
2023-03-05T08:44:34.944Z,62.64
2023-03-05T08:45:34.928Z,63.29
2023-03-05T08:46:35.006Z,63.40
2023-03-05T08:47:34.924Z,63.92
2023-03-05T08:48:34.909Z,63.73
2023-03-05T08:49:34.883Z,63.81
2023-03-05T08:50:34.877Z,63.21
2023-03-05T08:51:34.865Z,63.42
2023-03-05T08:52:34.855Z,63.73
2023-03-05T08:53:34.855Z,64.04
2023-03-05T08:54:34.832Z,63.94
2023-03-05T08:55:34.852Z,63.76
2023-03-05T08:56:34.810Z,63.04
2023-03-05T08:57:34.807Z,63.35
2023-03-05T08:58:34.798Z,63.04
2023-03-05T08:59:34.807Z,63.53
2023-03-05T09:00:34.773Z,63.53
2023-03-05T09:01:34.806Z,62.70
2023-03-05T09:02:34.777Z,62.80
2023-03-05T09:03:34.790Z,62.59
2023-03-05T09:04:34.731Z,62.28
2023-03-05T09:05:34.731Z,62.46
2023-03-05T09:06:34.724Z,61.81
2023-03-05T09:07:34.704Z,60.74
2023-03-05T09:08:34.711Z,60.33
2023-03-05T09:09:34.669Z,60.64
2023-03-05T09:10:34.668Z,60.41
2023-03-05T09:11:35.514Z,60.64
2023-03-05T09:12:34.675Z,60.30
2023-03-05T09:13:34.634Z,60.51
2023-03-05T09:14:34.640Z,59.58
2023-03-05T09:15:34.599Z,59.58
2023-03-05T09:16:34.619Z,60.22
2023-03-05T09:17:34.592Z,60.46
2023-03-05T09:18:34.564Z,60.46
2023-03-05T09:19:34.557Z,61.53
2023-03-05T09:20:34.545Z,62.36
2023-03-05T09:21:34.532Z,63.01
2023-03-05T09:22:34.531Z,63.21
2023-03-05T09:23:34.515Z,62.90
2023-03-05T09:24:34.510Z,63.11
2023-03-05T09:25:34.534Z,62.73
2023-03-05T09:26:34.483Z,63.14
2023-03-05T09:27:34.476Z,63.76
2023-03-05T09:28:34.464Z,63.11
2023-03-05T09:29:34.458Z,63.04
2023-03-05T09:30:34.429Z,62.52
2023-03-05T09:31:34.467Z,62.83
2023-03-05T09:32:34.589Z,62.83
2023-03-05T09:33:34.400Z,63.28
2023-03-05T09:34:34.402Z,63.48
2023-03-05T09:35:34.410Z,64.00
2023-03-05T09:36:34.376Z,64.21
2023-03-05T09:37:34.365Z,64.21
2023-03-05T09:38:34.371Z,63.17
2023-03-05T09:39:34.446Z,63.38
2023-03-05T09:40:34.342Z,63.28
2023-03-05T09:41:34.343Z,62.96
2023-03-05T09:42:34.300Z,63.38
2023-03-05T09:43:34.293Z,63.79
2023-03-05T09:44:34.316Z,63.87
2023-03-05T09:45:34.301Z,62.83
2023-03-05T09:46:34.257Z,62.73
2023-03-05T09:47:34.256Z,63.04
2023-03-05T09:48:34.247Z,63.04
2023-03-05T09:49:34.247Z,62.73
2023-03-05T09:50:34.230Z,63.24
2023-03-05T09:51:34.215Z,62.93
2023-03-05T09:52:34.192Z,62.52
2023-03-05T09:53:34.239Z,62.52
2023-03-05T09:54:34.175Z,62.31
2023-03-05T09:55:34.202Z,61.76
2023-03-05T09:56:34.169Z,61.35
2023-03-05T09:57:34.146Z,61.43
2023-03-05T09:58:34.120Z,59.40
2023-03-05T09:59:34.151Z,59.50
2023-03-05T10:00:34.163Z,59.32
2023-03-05T10:01:34.101Z,60.43
2023-03-05T10:02:34.094Z,59.94
2023-03-05T10:03:34.086Z,59.71
2023-03-05T10:04:34.067Z,60.22
2023-03-05T10:05:34.058Z,59.32
2023-03-05T10:06:34.053Z,59.53
2023-03-05T10:07:34.040Z,59.45
2023-03-05T10:08:34.028Z,59.45
2023-03-05T10:09:35.884Z,59.27
2023-03-05T10:10:34.000Z,59.27
2023-03-05T10:11:34.012Z,59.06
2023-03-05T10:12:33.972Z,59.27
2023-03-05T10:13:33.970Z,59.17
2023-03-05T10:14:33.963Z,58.83
2023-03-05T10:15:33.957Z,58.42
2023-03-05T10:16:33.976Z,58.94
2023-03-05T10:17:33.942Z,58.28
2023-03-05T10:18:33.953Z,58.21
2023-03-05T10:19:33.953Z,58.31
2023-03-05T10:20:33.909Z,58.62
2023-03-05T10:21:33.897Z,58.75
2023-03-05T10:22:33.959Z,58.75
2023-03-05T10:23:33.864Z,58.86
2023-03-05T10:24:33.860Z,59.56
2023-03-05T10:25:33.841Z,58.62
2023-03-05T10:26:33.845Z,58.11
2023-03-05T10:27:33.946Z,58.13
2023-03-05T10:28:33.832Z,57.61
2023-03-05T10:29:34.530Z,57.92
2023-03-05T10:30:33.801Z,58.34
2023-03-05T10:31:33.822Z,58.44
2023-03-05T10:32:33.779Z,59.38
2023-03-05T10:33:33.820Z,60.31
2023-03-05T10:34:33.741Z,60.72
2023-03-05T10:35:33.797Z,60.93
2023-03-05T10:36:33.728Z,61.35
2023-03-05T10:37:33.708Z,61.43
2023-03-05T10:38:33.707Z,61.32
2023-03-05T10:39:33.695Z,60.46
2023-03-05T10:40:33.745Z,60.25
2023-03-05T10:41:33.829Z,60.57
2023-03-05T10:42:33.686Z,59.47
2023-03-05T10:43:33.668Z,59.16
2023-03-05T10:44:33.642Z,58.85
2023-03-05T10:45:33.656Z,59.16
2023-03-05T10:46:33.614Z,58.85
2023-03-05T10:47:33.604Z,58.64
2023-03-05T10:48:33.587Z,59.37
2023-03-05T10:49:33.587Z,58.78
2023-03-05T10:50:33.579Z,59.01
2023-03-05T10:51:33.583Z,59.32
2023-03-05T10:52:33.550Z,59.74
2023-03-05T10:53:33.568Z,59.84
2023-03-05T10:54:33.532Z,60.25
2023-03-05T10:55:34.047Z,60.57
2023-03-05T10:56:33.499Z,61.19
2023-03-05T10:57:33.529Z,62.46
2023-03-05T10:58:33.498Z,62.67
2023-03-05T10:59:33.480Z,63.53
2023-03-05T11:00:33.481Z,64.36
2023-03-05T11:01:33.486Z,64.98
2023-03-05T11:02:33.602Z,65.81
2023-03-05T11:03:33.422Z,66.88
2023-03-05T11:04:33.411Z,66.67
2023-03-05T11:05:33.413Z,67.09
2023-03-05T11:06:33.394Z,67.82
2023-03-05T11:07:33.396Z,68.13
2023-03-05T11:08:33.372Z,68.75
2023-03-05T11:09:33.349Z,68.75
2023-03-05T11:10:33.378Z,69.27
2023-03-05T11:11:33.370Z,69.68
2023-03-05T11:12:33.350Z,68.96
2023-03-05T11:13:33.317Z,69.09
2023-03-05T11:14:33.345Z,67.92
2023-03-05T11:15:33.443Z,67.30
2023-03-05T11:16:33.304Z,66.99
2023-03-05T11:17:33.309Z,66.81
2023-03-05T11:18:33.273Z,68.26
2023-03-05T11:19:33.262Z,68.13
2023-03-05T11:20:33.254Z,67.19
2023-03-05T11:21:33.330Z,66.08
2023-03-05T11:22:33.211Z,67.30
2023-03-05T11:23:33.211Z,66.67
2023-03-05T11:24:33.198Z,67.30
2023-03-05T11:25:33.191Z,67.30
2023-03-05T11:26:33.465Z,67.47
2023-03-05T11:27:33.174Z,66.96
2023-03-05T11:28:34.004Z,67.58
2023-03-05T11:29:33.152Z,67.27
2023-03-05T11:30:33.194Z,65.50
2023-03-05T11:31:33.154Z,65.73
2023-03-05T11:32:33.160Z,65.63
2023-03-05T11:33:33.128Z,65.94
2023-03-05T11:34:33.130Z,65.42
2023-03-05T11:35:33.116Z,66.05
2023-03-05T11:36:33.090Z,66.08
2023-03-05T11:37:33.091Z,65.87
2023-03-05T11:38:34.993Z,66.39
2023-03-05T11:39:33.048Z,66.50
2023-03-05T11:40:33.032Z,66.50
2023-03-05T11:41:33.061Z,66.60
2023-03-05T11:42:32.992Z,65.97
2023-03-05T11:43:33.039Z,66.81
2023-03-05T11:44:33.025Z,66.50
2023-03-05T11:45:32.967Z,65.97
2023-03-05T11:46:33.088Z,65.35
2023-03-05T11:47:32.963Z,65.63
2023-03-05T11:48:32.940Z,65.39
2023-03-05T11:49:35.175Z,65.29
2023-03-05T11:50:32.941Z,64.04
2023-03-05T11:51:32.946Z,64.25
2023-03-05T11:52:32.947Z,64.15
2023-03-05T11:53:32.912Z,64.15
2023-03-05T11:54:32.877Z,64.46
2023-03-05T11:55:32.864Z,64.36
2023-03-05T11:56:32.854Z,64.46
2023-03-05T11:57:32.858Z,64.39
2023-03-05T11:58:32.854Z,64.56
2023-03-05T11:59:32.825Z,63.87
2023-03-05T12:00:32.875Z,64.49
2023-03-05T12:01:32.804Z,64.49
2023-03-05T12:02:32.936Z,64.80
2023-03-05T12:03:32.914Z,65.66
2023-03-05T12:04:32.831Z,65.87
2023-03-05T12:05:32.848Z,67.43
2023-03-05T12:06:32.741Z,67.25
2023-03-05T12:07:32.733Z,68.60
2023-03-05T12:08:32.758Z,70.48
2023-03-05T12:09:32.732Z,72.07
2023-03-05T12:10:32.713Z,72.72
2023-03-05T12:11:32.691Z,74.08
2023-03-05T12:12:32.695Z,76.06
2023-03-05T12:13:32.701Z,77.51
2023-03-05T12:14:32.672Z,78.69
2023-03-05T12:15:32.640Z,79.63
2023-03-05T12:16:32.703Z,80.05
2023-03-05T12:17:32.629Z,79.59
2023-03-05T12:18:32.633Z,79.17
2023-03-05T12:19:32.602Z,79.59
2023-03-05T12:20:32.722Z,78.31
2023-03-05T12:21:32.581Z,77.03
2023-03-05T12:22:32.565Z,75.78
2023-03-05T12:23:32.563Z,75.19
2023-03-05T12:24:32.544Z,71.63
2023-03-05T12:25:32.536Z,67.25
2023-03-05T12:26:32.525Z,64.68
2023-03-05T12:27:32.509Z,63.60
2023-03-05T12:28:32.515Z,65.84
2023-03-05T12:29:32.529Z,64.76
2023-03-05T12:30:32.490Z,66.62
2023-03-05T12:31:32.543Z,66.21
2023-03-05T12:32:32.531Z,65.45
2023-03-05T12:33:32.474Z,65.25
2023-03-05T12:34:32.468Z,63.25
2023-03-05T12:35:32.846Z,63.97
2023-03-05T12:36:32.584Z,62.37
2023-03-05T12:37:32.476Z,62.91
2023-03-05T12:38:32.633Z,62.87
2023-03-05T12:39:32.469Z,63.41
2023-03-05T12:40:32.540Z,63.93
2023-03-05T12:41:33.143Z,63.20
2023-03-05T12:42:32.374Z,63.85
2023-03-05T12:43:32.460Z,65.17
2023-03-05T12:44:32.495Z,63.48
2023-03-05T12:45:32.522Z,63.20
2023-03-05T12:46:32.474Z,63.54
2023-03-05T12:47:32.453Z,63.75
2023-03-05T12:48:32.388Z,63.68
2023-03-05T12:49:32.359Z,64.40
2023-03-05T12:50:32.427Z,64.79
2023-03-05T12:51:32.248Z,63.96
2023-03-05T12:52:32.243Z,64.06
2023-03-05T12:53:32.240Z,63.02
2023-03-05T12:54:32.237Z,63.44
2023-03-05T12:55:32.209Z,63.85
2023-03-05T12:56:32.215Z,64.06
2023-03-05T12:57:32.208Z,63.65
2023-03-05T12:58:32.202Z,63.99
2023-03-05T12:59:32.219Z,64.61
2023-03-05T13:00:32.181Z,65.23
2023-03-05T13:01:32.146Z,65.86
2023-03-05T13:02:32.224Z,66.09
2023-03-05T13:03:33.585Z,67.34
2023-03-05T13:04:32.118Z,67.37
2023-03-05T13:05:32.126Z,68.51
2023-03-05T13:06:32.090Z,69.65
2023-03-05T13:07:32.106Z,70.00
2023-03-05T13:08:32.111Z,70.20
2023-03-05T13:09:32.149Z,70.83
2023-03-05T13:10:32.069Z,71.11
2023-03-05T13:11:32.223Z,69.65
2023-03-05T13:12:32.078Z,69.45
2023-03-05T13:13:32.077Z,69.62
2023-03-05T13:14:32.245Z,69.69
2023-03-05T13:15:32.088Z,67.73
2023-03-05T13:16:32.021Z,65.60
2023-03-05T13:17:31.980Z,65.53
2023-03-05T13:18:31.980Z,66.05
2023-03-05T13:19:31.952Z,66.59
2023-03-05T13:20:32.001Z,67.24
2023-03-05T13:21:31.916Z,67.14
2023-03-05T13:22:31.938Z,67.17
2023-03-05T13:23:31.899Z,66.99
2023-03-05T13:24:31.921Z,67.86
2023-03-05T13:25:31.887Z,68.17
2023-03-05T13:26:31.902Z,67.24
2023-03-05T13:27:31.872Z,66.68
2023-03-05T13:28:31.864Z,66.47
2023-03-05T13:29:31.840Z,66.78
2023-03-05T13:30:33.721Z,66.58
2023-03-05T13:31:31.863Z,66.99
2023-03-05T13:32:31.879Z,66.68
2023-03-05T13:33:31.810Z,66.47
2023-03-05T13:34:44.552Z,66.58
2023-03-05T13:35:31.805Z,66.68
2023-03-05T13:36:31.887Z,66.99
2023-03-05T13:37:31.749Z,66.17
2023-03-05T13:38:31.757Z,66.89
2023-03-05T13:39:31.740Z,66.47
2023-03-05T13:40:31.751Z,66.47
2023-03-05T13:41:31.690Z,65.31
2023-03-05T13:42:31.747Z,64.48
2023-03-05T13:43:31.701Z,64.69
2023-03-05T13:44:31.687Z,63.99
2023-03-05T13:45:31.727Z,63.99
2023-03-05T13:46:31.649Z,64.20
2023-03-05T13:47:31.665Z,63.99
2023-03-05T13:48:31.678Z,63.78
2023-03-05T13:49:31.660Z,64.20
2023-03-05T13:50:31.725Z,63.71
2023-03-05T13:51:31.673Z,63.29
2023-03-05T13:52:31.582Z,63.60
2023-03-05T13:53:31.574Z,64.20
2023-03-05T13:54:31.552Z,63.78
2023-03-05T13:55:31.693Z,63.85
2023-03-05T13:56:31.606Z,62.51
2023-03-05T13:57:31.522Z,61.96
2023-03-05T13:58:31.538Z,61.36
2023-03-05T13:59:31.562Z,61.47
2023-03-05T14:00:31.544Z,61.26
2023-03-05T14:01:31.621Z,60.30
2023-03-05T14:02:33.344Z,60.41
2023-03-05T14:03:33.165Z,60.41
2023-03-05T14:04:31.569Z,60.38
2023-03-05T14:05:31.539Z,60.27
2023-03-05T14:06:31.510Z,60.38
2023-03-05T14:07:31.414Z,60.38
2023-03-05T14:08:31.422Z,60.48
2023-03-05T14:09:31.390Z,60.48
2023-03-05T14:10:31.522Z,59.86
2023-03-05T14:11:31.396Z,60.79
2023-03-05T14:12:31.405Z,60.06
2023-03-05T14:13:31.372Z,59.94
2023-03-05T14:14:31.354Z,59.55
2023-03-05T14:15:31.396Z,60.51
2023-03-05T14:16:31.364Z,60.95
2023-03-05T14:17:31.315Z,61.36
2023-03-05T14:18:31.316Z,61.26
2023-03-05T14:19:31.298Z,62.09
2023-03-05T14:20:31.286Z,62.40
2023-03-05T14:21:31.254Z,61.57
2023-03-05T14:22:31.256Z,62.02
2023-03-05T14:23:31.283Z,61.71
2023-03-05T14:24:31.229Z,61.60
2023-03-05T14:25:31.716Z,60.46
2023-03-05T14:26:31.265Z,59.97
2023-03-05T14:27:31.212Z,60.39
2023-03-05T14:28:31.193Z,62.80
2023-03-05T14:29:31.217Z,65.63
2023-03-05T14:30:31.209Z,68.78
2023-03-05T14:31:31.208Z,71.28
2023-03-05T14:32:31.245Z,73.39
2023-03-05T14:33:31.178Z,74.74
2023-03-05T14:34:31.300Z,75.60
2023-03-05T14:35:31.214Z,75.92
2023-03-05T14:36:31.200Z,74.70
2023-03-05T14:37:31.144Z,76.06
2023-03-05T14:38:31.146Z,76.68
2023-03-05T14:39:31.143Z,76.64
2023-03-05T14:40:31.097Z,75.50
2023-03-05T14:41:31.136Z,74.77
2023-03-05T14:42:31.133Z,75.19
2023-03-05T14:43:31.031Z,74.22
2023-03-05T14:44:31.059Z,74.22
2023-03-05T14:45:31.115Z,72.97
2023-03-05T14:46:31.063Z,72.86
2023-03-05T14:47:31.187Z,72.03
2023-03-05T14:48:30.985Z,72.45
2023-03-05T14:49:30.996Z,71.93
2023-03-05T14:50:31.304Z,72.97
2023-03-05T14:51:30.972Z,72.24
2023-03-05T14:52:31.017Z,72.76
2023-03-05T14:53:31.136Z,71.93
2023-03-05T14:54:30.920Z,72.34
2023-03-05T14:55:30.910Z,72.24
2023-03-05T14:56:30.910Z,72.86
2023-03-05T14:57:30.889Z,72.97
2023-03-05T14:58:30.893Z,72.66
2023-03-05T14:59:30.852Z,71.93
2023-03-05T15:00:30.950Z,72.86
2023-03-05T15:01:30.898Z,71.72
2023-03-05T15:02:30.911Z,70.06
2023-03-05T15:03:30.834Z,70.48
2023-03-05T15:04:30.838Z,70.89
2023-03-05T15:05:30.856Z,70.27
2023-03-05T15:06:30.845Z,70.17
2023-03-05T15:07:30.773Z,70.06
2023-03-05T15:08:30.936Z,70.27
2023-03-05T15:09:30.794Z,69.12
2023-03-05T15:10:30.766Z,68.19
2023-03-05T15:11:30.783Z,69.23
2023-03-05T15:12:30.737Z,69.02
2023-03-05T15:13:30.783Z,69.23
2023-03-05T15:14:30.718Z,68.60
2023-03-05T15:15:30.715Z,69.12
2023-03-05T15:16:32.188Z,67.98
2023-03-05T15:17:30.674Z,68.91
2023-03-05T15:18:30.646Z,68.40
2023-03-05T15:19:30.643Z,68.40
2023-03-05T15:20:30.744Z,68.29
2023-03-05T15:21:30.612Z,68.60
2023-03-05T15:22:30.810Z,68.74
2023-03-05T15:23:30.646Z,69.12
2023-03-05T15:24:30.585Z,68.84
2023-03-05T15:25:30.579Z,69.15
2023-03-05T15:26:30.584Z,69.05
2023-03-05T15:27:31.408Z,70.09
2023-03-05T15:28:30.537Z,69.68
2023-03-05T15:29:30.528Z,69.89
2023-03-05T15:30:30.540Z,69.78
2023-03-05T15:31:30.533Z,69.78
2023-03-05T15:32:30.562Z,69.99
2023-03-05T15:33:30.509Z,70.61
2023-03-05T15:34:30.487Z,69.96
2023-03-05T15:35:30.533Z,69.64
2023-03-05T15:36:32.750Z,69.96
2023-03-05T15:37:30.508Z,70.17
2023-03-05T15:38:30.447Z,70.06
2023-03-05T15:39:30.413Z,69.85
2023-03-05T15:40:30.418Z,69.74
2023-03-05T15:41:30.418Z,69.57
2023-03-05T15:42:30.460Z,69.96
2023-03-05T15:43:30.366Z,70.06
2023-03-05T15:44:30.376Z,70.06
2023-03-05T15:45:30.360Z,69.43
2023-03-05T15:46:30.411Z,69.78
2023-03-05T15:47:33.327Z,69.64
2023-03-05T15:48:30.355Z,69.96
2023-03-05T15:49:30.328Z,70.27
2023-03-05T15:50:30.311Z,69.74
2023-03-05T15:51:30.341Z,70.20
2023-03-05T15:52:30.352Z,70.51
2023-03-05T15:53:30.276Z,69.99
2023-03-05T15:54:30.581Z,69.68
2023-03-05T15:55:30.251Z,70.20
2023-03-05T15:56:30.453Z,69.78
2023-03-05T15:57:30.269Z,70.20
2023-03-05T15:58:30.229Z,70.40
2023-03-05T15:59:30.213Z,69.47
2023-03-05T16:00:30.290Z,69.47
2023-03-05T16:01:30.233Z,70.09
2023-03-05T16:02:30.209Z,69.99
2023-03-05T16:03:30.204Z,69.99
2023-03-05T16:04:30.153Z,70.82
2023-03-05T16:05:30.333Z,70.09
2023-03-05T16:06:30.155Z,70.61
2023-03-05T16:07:32.447Z,70.51
2023-03-05T16:08:30.126Z,70.20
2023-03-05T16:09:30.546Z,70.51
2023-03-05T16:10:30.107Z,70.20
2023-03-05T16:11:30.122Z,70.20
2023-03-05T16:12:30.106Z,69.15
2023-03-05T16:13:30.130Z,70.09
2023-03-05T16:14:30.376Z,69.37
2023-03-05T16:15:31.792Z,69.47
2023-03-05T16:16:30.085Z,69.37
2023-03-05T16:17:30.029Z,69.05
2023-03-05T16:18:30.118Z,68.98
2023-03-05T16:19:30.018Z,69.40
2023-03-05T16:20:30.046Z,69.40
2023-03-05T16:21:30.025Z,69.19
2023-03-05T16:22:30.078Z,69.50
2023-03-05T16:23:30.271Z,69.19
2023-03-05T16:24:29.979Z,69.29
2023-03-05T16:25:30.010Z,69.19
2023-03-05T16:26:30.197Z,69.64
2023-03-05T16:27:30.164Z,69.84
2023-03-05T16:28:29.996Z,69.43
2023-03-05T16:29:30.945Z,69.43
2023-03-05T16:30:29.975Z,69.64
2023-03-05T16:31:30.006Z,69.53
2023-03-05T16:32:29.931Z,69.60
2023-03-05T16:33:29.963Z,69.29
2023-03-05T16:34:29.891Z,69.43
2023-03-05T16:35:30.005Z,69.74
2023-03-05T16:36:29.820Z,69.92
2023-03-05T16:37:29.865Z,70.02
2023-03-05T16:38:29.904Z,70.33
2023-03-05T16:39:30.066Z,70.26
2023-03-05T16:40:56.584Z,70.43
2023-03-05T16:41:29.824Z,70.36
2023-03-05T16:42:29.791Z,70.15
2023-03-05T16:43:29.735Z,70.57
2023-03-05T16:44:30.378Z,70.57
2023-03-05T16:45:30.404Z,70.36
2023-03-05T16:46:30.079Z,69.95
2023-03-05T16:47:29.935Z,70.15
2023-03-05T16:48:29.710Z,70.47
2023-03-05T16:49:29.759Z,70.89
2023-03-05T16:50:29.761Z,70.68
2023-03-05T16:51:29.757Z,70.57
2023-03-05T16:52:29.790Z,70.57
2023-03-05T16:53:29.896Z,70.57
2023-03-05T16:54:29.747Z,70.57
2023-03-05T16:55:29.672Z,70.57
2023-03-05T16:56:29.634Z,70.68
2023-03-05T16:57:29.693Z,70.47
2023-03-05T16:58:29.628Z,70.47
2023-03-05T16:59:29.663Z,70.78
2023-03-05T17:00:29.555Z,70.78
2023-03-05T17:01:29.623Z,71.09
2023-03-05T17:02:29.536Z,70.99
2023-03-05T17:03:29.630Z,71.20
2023-03-05T17:04:29.564Z,70.99
2023-03-05T17:05:29.586Z,70.99
2023-03-05T17:06:29.533Z,70.99
2023-03-05T17:07:29.504Z,71.09
2023-03-05T17:08:29.580Z,71.09
2023-03-05T17:09:29.472Z,70.99
2023-03-05T17:10:29.484Z,70.89
2023-03-05T17:11:29.474Z,71.33
2023-03-05T17:12:29.479Z,71.75
2023-03-05T17:13:29.462Z,71.96
2023-03-05T17:14:29.394Z,71.96
2023-03-05T17:15:29.683Z,71.96
2023-03-05T17:16:29.436Z,71.92
2023-03-05T17:17:29.362Z,72.03
2023-03-05T17:18:29.451Z,72.03
2023-03-05T17:19:29.369Z,72.24
2023-03-05T17:20:29.431Z,71.92
2023-03-05T17:21:29.383Z,72.13
2023-03-05T17:22:29.528Z,72.03
2023-03-05T17:23:29.374Z,71.96
2023-03-05T17:24:29.498Z,72.06
2023-03-05T17:25:29.489Z,72.27
2023-03-05T17:26:29.313Z,72.38
2023-03-05T17:27:29.346Z,72.27
2023-03-05T17:28:29.306Z,72.38
2023-03-05T17:29:29.397Z,72.48
2023-03-05T17:30:29.291Z,72.69
2023-03-05T17:31:29.341Z,73.00
2023-03-05T17:32:29.280Z,72.89
2023-03-05T17:33:29.315Z,72.89
2023-03-05T17:34:35.911Z,72.89
2023-03-05T17:35:29.274Z,72.79
2023-03-05T17:36:29.225Z,72.79
2023-03-05T17:37:29.216Z,72.48
2023-03-05T17:38:29.296Z,72.79
2023-03-05T17:39:29.230Z,72.69
2023-03-05T17:40:29.188Z,73.10
2023-03-05T17:41:29.173Z,73.10
2023-03-05T17:42:29.141Z,72.66
2023-03-05T17:43:29.167Z,72.58
2023-03-05T17:44:29.130Z,72.79
2023-03-05T17:45:29.198Z,73.21
2023-03-05T17:46:29.172Z,73.00
2023-03-05T17:47:29.134Z,73.00
2023-03-05T17:48:29.098Z,73.21
2023-03-05T17:49:29.082Z,73.21
2023-03-05T17:50:29.107Z,73.42
2023-03-05T17:51:29.122Z,73.42
2023-03-05T17:52:29.050Z,73.63